KMCO/MCO METAR and TAF weather

Enter ICAO airport designator
Station Type Date Time Source
KMCO METAR 2021/09/24 05:53 UTC NOAA

KMCO 240553Z 05005KT 10SM SCT045 BKN130 24/22 A2996 RMK AO2 SLP142 60000 T02440217 10256 20239 58006


Station Type Date Time Source
KMCO Decoded METAR 2021/09/24 05:53 UTC NOAA

ORLANDO INTERNATIONAL AIRPORT , FL, United States (KMCO) 28-25N 81-20W 29M
Sep 24, 2021 - 01:53 AM EDT / 2021.09.24 0553 UTC
Wind: from the NE (050 degrees) at 6 MPH (5 KT):0
Visibility: 10 mile(s):0
Sky conditions: mostly cloudy
Temperature: 75.9 F (24.4 C)
Dew Point: 71.1 F (21.7 C)
Relative Humidity: 84%
Pressure (altimeter): 29.96 in. Hg (1014 hPa)
Pressure tendency: 0.02 inches (0.6 hPa) lower than three hours ago
ob: KMCO 240553Z 05005KT 10SM SCT045 BKN130 24/22 A2996 RMK AO2 SLP142 60000 T02440217 10256 20239 58006
cycle: 6

Station Type Date Time Source
KMCO TAF 2021/09/24 06:48 UTC NOAA

TAF KMCO 240547Z 2406/2512 03005KT P6SM FEW030 BKN060
FM241400 03007KT P6SM SCT045
FM242000 07010KT P6SM BKN060
FM250100 05006KT P6SM FEW030 SCT070

Example: see airport list